Latest Weather Observations for Eucla

IDW60801

Issued at 6:05 pm WST Thursday 2 October 2014 (issued every 30 minutes, with the page automatically refreshed every 10 minutes)

About weather observations | Map of weather stations | Latest weather observations for WA | Other Formats
Station Details ID: 011003 Name: EUCLA Lat: -31.68 Lon: 128.90 Height: 93.1 m
Data from the previous 72 hours. | See also: Recent months at Eucla
Date/Time
WST
Temp
°C
App
Temp
°C
Dew
Point
Rel
Hum
%
Delta-T
°C
Wind Press
QNH
hPa
Press
MSL
hPa
Rain
since 9 am
mm
Dir
 
Spd
km/h
Gust
km/h
Spd
kts
Gust
kts
02/06:00pm 15.9 13.1 12.6 81 1.8 E 19 28 10 15 1020.4 1020.2 0.0
02/05:30pm 16.1 13.1 12.5 79 2.0 E 20 32 11 17 1020.1 1019.9 0.0
02/05:00pm 16.4 13.5 12.8 79 2.0 E 20 35 11 19 1019.7 1019.5 0.0
02/04:30pm 17.3 13.8 12.2 72 2.8 ESE 22 35 12 19 1019.8 1019.6 0.0
02/04:00pm 18.0 13.9 12.7 71 3.0 E 26 37 14 20 1019.3 1019.1 0.0
02/03:30pm 18.4 14.7 12.6 69 3.3 E 24 37 13 20 1019.1 1018.9 0.0
02/03:00pm 18.5 14.2 12.0 66 3.6 E 26 39 14 21 1019.1 1018.9 0.0
02/02:30pm 19.0 15.0 13.0 68 3.4 ESE 26 37 14 20 1019.3 1019.1 0.0
02/02:00pm 18.9 14.8 12.6 67 3.5 ESE 26 41 14 22 1019.4 1019.2 0.0
02/01:30pm 19.3 15.5 12.3 64 3.9 ESE 24 35 13 19 1019.8 1019.6 0.0
02/01:00pm 20.0 16.3 12.7 63 4.1 ESE 24 33 13 18 1020.2 1020.0 0.0
02/12:30pm 20.7 16.8 12.1 58 4.8 ESE 24 33 13 18 1020.6 1020.4 0.0
02/12:00pm 20.2 16.6 11.9 59 4.6 ESE 22 32 12 17 1021.0 1020.8 0.0
02/11:30am 20.2 16.8 12.4 61 4.4 ESE 22 35 12 19 1021.1 1020.9 0.0
02/11:00am 20.7 17.6 12.1 58 4.8 ESE 20 32 11 17 1021.5 1021.3 0.0
02/10:30am 20.5 16.9 12.0 58 4.8 ESE 22 28 12 15 1022.0 1021.8 0.0
02/10:00am 20.0 16.9 11.7 59 4.6 SE 19 28 10 15 1022.7 1022.5 0.0
02/09:30am 19.9 16.7 11.4 58 4.7 ESE 19 30 10 16 1022.9 1022.7 0.0
02/09:00am 22.7 18.8 6.9 36 8.1 NE 17 26 9 14 1023.5 1023.3 0.0
02/08:30am 21.3 17.3 6.8 39 7.4 ENE 17 28 9 15 1023.5 1023.3 0.0
02/08:00am 19.7 15.9 9.0 50 5.6 E 19 32 10 17 1023.6 1023.4 0.0
02/07:30am 17.3 14.5 10.0 62 3.9 ENE 15 24 8 13 1024.1 1023.9 0.0
02/07:00am 15.2 11.5 10.0 71 2.7 ENE 20 32 11 17 1024.0 1023.8 0.0
02/06:30am 14.3 10.6 10.1 76 2.2 ENE 20 30 11 16 1024.1 1023.9 0.0
02/06:00am 13.4 10.2 10.0 80 1.8 ENE 17 30 9 16 1024.1 1023.9 0.0
02/05:30am 12.2 8.7 10.3 88 1.0 ENE 19 32 10 17 1024.0 1023.8 0.0
02/05:00am 11.6 8.5 10.2 91 0.7 ENE 17 30 9 16 1023.8 1023.6 0.0
02/04:30am 11.5 8.0 10.2 92 0.7 ENE 19 28 10 15 1023.5 1023.3 0.0
02/04:00am 11.4 8.4 10.5 94 0.5 ENE 17 26 9 14 1023.4 1023.2 0.0
02/03:30am 11.3 8.2 10.4 94 0.5 ENE 17 24 9 13 1023.2 1023.0 0.0
02/03:00am 11.5 8.9 10.6 94 0.5 ENE 15 20 8 11 1023.2 1023.0 0.0
02/02:30am 12.0 9.5 11.1 94 0.5 ENE 15 22 8 12 1023.3 1023.1 0.0
02/02:00am 11.8 9.3 10.9 94 0.5 ENE 15 20 8 11 1023.4 1023.2 0.0
02/01:30am 11.5 9.3 10.7 95 0.4 ENE 13 17 7 9 1023.7 1023.5 0.0
02/01:00am 11.7 9.8 10.6 93 0.6 NE 11 15 6 8 1024.3 1024.1 0.0
02/12:30am 12.6 10.9 11.2 91 0.7 NE 11 17 6 9 1024.5 1024.4 0.0
02/12:00am 13.1 11.1 11.5 90 0.8 E 13 17 7 9 1024.7 1024.6 0.0
 
Date/Time
WST
Temp
°C
App
Temp
°C
Dew
Point
Rel
Hum
%
Delta-T
°C
Wind Press
QNH
hPa
Press
MSL
hPa
Rain
since 9 am
mm
Dir
 
Spd
km/h
Gust
km/h
Spd
kts
Gust
kts
01/11:30pm 13.5 11.6 11.7 89 1.0 E 13 19 7 10 1025.2 1025.1 0.0
01/11:00pm 13.6 11.3 11.7 88 1.0 E 15 22 8 12 1025.5 1025.4 0.0
01/10:30pm 13.7 10.9 11.4 86 1.2 E 17 28 9 15 1025.6 1025.5 0.0
01/10:00pm 13.9 11.6 11.6 86 1.2 E 15 20 8 11 1025.5 1025.4 0.0
01/09:30pm 13.7 11.2 11.2 85 1.3 E 15 24 8 13 1025.8 1025.7 0.0
01/09:00pm 13.9 11.8 11.1 83 1.5 E 13 20 7 11 1026.1 1026.0 0.0
01/08:30pm 14.0 11.1 11.0 82 1.6 E 17 26 9 14 1026.2 1026.1 0.0
01/08:00pm 14.3 10.9 11.1 81 1.7 E 20 33 11 18 1026.0 1025.9 0.0
01/07:30pm 14.3 10.8 10.9 80 1.8 E 20 30 11 16 1025.8 1025.7 0.0
01/07:00pm 14.5 10.6 10.9 79 1.9 E 22 32 12 17 1025.6 1025.5 0.0
01/06:30pm 14.3 10.9 10.5 78 2.0 E 19 30 10 16 1025.5 1025.4 0.0
01/06:00pm 14.6 10.8 11.0 79 1.9 E 22 32 12 17 1025.1 1025.0 0.0
01/05:30pm 14.6 10.9 10.2 75 2.3 E 20 35 11 19 1025.0 1024.9 0.0
01/05:00pm 15.2 11.5 10.0 71 2.7 E 20 35 11 19 1025.0 1024.9 0.0
01/04:30pm 15.7 11.5 9.8 68 3.1 E 22 35 12 19 1025.0 1024.9 0.0
01/04:00pm 16.1 10.9 10.2 68 3.1 ESE 28 39 15 21 1025.0 1024.9 0.0
01/03:30pm 16.4 11.5 9.8 65 3.5 E 26 39 14 21 1025.0 1024.9 0.0
01/03:00pm 17.3 12.0 10.0 62 3.9 E 28 39 15 21 1025.0 1024.9 0.0
01/02:30pm 17.1 11.8 9.8 62 3.9 ESE 28 39 15 21 1025.1 1025.0 0.0
01/02:00pm 17.5 12.2 9.9 61 4.0 ESE 28 37 15 20 1025.2 1025.1 0.0
01/01:34pm 17.8 12.3 9.2 57 4.5 ESE 28 46 15 25 1025.6 1025.5 0.0
01/01:30pm 18.3 12.7 10.2 59 4.3 ESE 30 46 16 25 1025.6 1025.5 0.0
01/01:00pm 17.8 12.8 9.4 58 4.4 ESE 26 37 14 20 1025.9 1025.8 0.0
01/12:30pm 18.3 13.4 9.9 58 4.5 ESE 26 37 14 20 1026.3 1026.2 0.0
01/12:00pm 18.3 13.3 9.4 56 4.7 E 26 35 14 19 1026.8 1026.7 0.0
01/11:30am 17.8 12.3 9.2 57 4.5 ESE 28 37 15 20 1027.3 1027.2 0.0
01/11:00am 18.1 13.4 9.2 56 4.6 ESE 24 37 13 20 1027.6 1027.5 0.0
01/10:30am 18.2 13.4 9.0 55 4.8 ESE 24 37 13 20 1027.9 1027.8 0.0
01/10:00am 18.3 14.1 9.6 57 4.6 ESE 22 35 12 19 1028.2 1028.1 0.0
01/09:30am 17.6 12.8 8.7 56 4.6 ESE 24 37 13 20 1028.6 1028.5 0.0
01/09:00am 17.5 12.8 9.2 58 4.3 ESE 24 35 13 19 1028.9 1028.8 0.0
01/08:30am 17.2 13.2 9.1 59 4.2 ESE 20 32 11 17 1029.0 1028.9 0.0
01/08:00am 16.5 12.9 9.7 64 3.5 ESE 19 30 10 16 1029.0 1028.9 0.0
01/07:30am 16.8 13.1 10.2 65 3.5 ESE 20 33 11 18 1028.7 1028.7 0.0
01/07:00am 16.1 13.0 10.2 68 3.1 ESE 17 28 9 15 1028.5 1028.5 0.0
01/06:30am 15.8 12.6 10.1 69 3.0 ESE 17 26 9 14 1028.2 1028.2 0.0
01/06:00am 15.4 12.9 11.2 76 2.2 SE 15 24 8 13 1028.1 1028.1 0.0
01/05:30am 13.8 11.6 10.8 82 1.6 ESE 13 19 7 10 1027.9 1027.9 0.0
01/05:00am 13.3 11.3 10.1 81 1.6 ESE 11 15 6 8 1027.6 1027.6 0.0
01/04:30am 12.6 10.5 9.8 83 1.4 ESE 11 13 6 7 1027.3 1027.3 0.0
01/04:00am 13.1 11.1 10.1 82 1.5 ESE 11 15 6 8 1027.0 1027.0 0.0
01/03:30am 12.8 11.0 9.6 81 1.6 ESE 9 13 5 7 1026.9 1026.9 0.0
01/03:00am 13.0 11.2 9.6 80 1.7 ESE 9 13 5 7 1026.6 1026.6 0.0
01/02:30am 13.5 11.9 10.1 80 1.8 ESE 9 13 5 7 1026.5 1026.5 0.0
01/02:00am 13.6 11.6 10.2 80 1.8 SE 11 17 6 9 1026.5 1026.5 0.0
01/01:30am 13.7 11.8 10.5 81 1.7 SE 11 17 6 9 1026.4 1026.4 0.0
01/01:00am 13.7 11.4 10.3 80 1.8 SE 13 17 7 9 1026.5 1026.5 0.0
01/12:30am 14.0 11.7 10.6 80 1.8 SE 13 20 7 11 1026.5 1026.5 0.0
01/12:00am 14.2 12.1 11.0 81 1.7 SE 13 19 7 10 1026.6 1026.6 0.0
 
Date/Time
WST
Temp
°C
App
Temp
°C
Dew
Point
Rel
Hum
%
Delta-T
°C
Wind Press
QNH
hPa
Press
MSL
hPa
Rain
since 9 am
mm
Dir
 
Spd
km/h
Gust
km/h
Spd
kts
Gust
kts
30/11:30pm 13.9 11.2 10.5 80 1.8 SE 15 20 8 11 1026.8 1026.8 0.0
30/11:00pm 14.5 12.0 10.9 79 1.9 SE 15 26 8 14 1026.7 1026.7 0.0
30/10:30pm 13.7 11.7 10.3 80 1.8 SE 11 15 6 8 1026.7 1026.7 0.0
30/10:00pm 13.5 11.9 10.3 81 1.7 SE 9 13 5 7 1026.7 1026.7 0.0
30/09:30pm 13.8 11.8 10.2 79 1.9 SE 11 17 6 9 1026.6 1026.6 0.0
30/09:00pm 13.9 11.9 10.1 78 2.0 SE 11 17 6 9 1026.5 1026.5 0.0
30/08:30pm 13.8 11.8 10.2 79 1.9 SSE 11 15 6 8 1026.5 1026.5 0.0
30/08:00pm 14.0 12.1 10.4 79 1.9 SE 11 15 6 8 1026.4 1026.4 0.0
30/07:30pm 14.0 11.6 10.2 78 2.0 SSE 13 19 7 10 1026.3 1026.2 0.0
30/07:00pm 14.4 12.1 10.4 77 2.1 SSE 13 22 7 12 1025.9 1025.8 0.0
30/06:30pm 14.3 12.0 10.5 78 2.0 SSE 13 19 7 10 1025.4 1025.3 0.0
30/06:00pm 14.7 12.4 10.5 76 2.2 SSE 13 19 7 10 1025.1 1025.0 0.0
30/05:30pm 15.1 12.8 10.5 74 2.4 SSE 13 19 7 10 1024.6 1024.5 0.0
30/05:00pm 15.9 12.8 10.4 70 2.9 SSE 17 24 9 13 1024.3 1024.2 0.0
30/04:30pm 16.7 13.5 11.2 70 3.0 S 19 30 10 16 1024.0 1023.9 0.0
30/04:00pm 17.3 14.4 10.9 66 3.4 S 17 26 9 14 1023.7 1023.6 0.0
30/03:30pm 17.1 13.8 11.6 70 3.0 S 20 30 11 16 1023.5 1023.4 0.0
30/03:00pm 18.2 15.1 11.5 65 3.7 S 19 30 10 16 1023.3 1023.2 0.0
30/02:30pm 18.7 15.2 11.0 61 4.2 S 20 28 11 15 1023.0 1022.9 0.0
30/02:00pm 19.0 15.5 10.8 59 4.4 S 20 30 11 16 1022.9 1022.8 0.0
30/01:30pm 20.0 16.6 10.7 55 5.1 S 19 30 10 16 1022.8 1022.7 0.0
30/01:00pm 19.9 16.7 11.9 60 4.4 S 20 32 11 17 1022.7 1022.6 0.0
30/12:30pm 19.3 16.1 11.8 62 4.2 S 20 32 11 17 1022.6 1022.5 0.0
30/12:00pm 20.3 17.1 11.8 58 4.7 S 20 33 11 18 1022.6 1022.5 0.0
30/11:30am 20.5 17.0 10.3 52 5.5 S 19 30 10 16 1022.6 1022.5 0.0
30/11:00am 20.4 17.2 9.9 51 5.6 SSW 17 30 9 16 1022.7 1022.6 0.0
30/10:30am 21.0 17.2 9.9 49 6.0 SSW 20 33 11 18 1022.7 1022.6 0.0
30/10:00am 20.9 17.2 9.5 48 6.1 SSW 19 33 10 18 1022.6 1022.5 0.0
30/09:30am 20.7 17.4 9.6 49 6.0 SSW 17 30 9 16 1022.5 1022.4 0.0
30/09:00am 20.6 18.1 11.0 54 5.3 SSW 15 22 8 12 1022.4 1022.3 0.0
30/08:30am 19.3 16.1 11.3 60 4.4 SSW 19 28 10 15 1022.5 1022.4 0.0
30/08:00am 18.5 16.1 12.5 68 3.3 SSW 17 28 9 15 1022.3 1022.2 0.0
30/07:30am 17.0 14.4 11.9 72 2.8 SSW 17 26 9 14 1022.1 1022.0 0.0
30/07:00am 16.6 15.2 12.2 75 2.4 SW 11 19 6 10 1021.5 1021.4 0.0
30/06:30am 15.6 14.3 12.5 82 1.7 WSW 11 15 6 8 1021.0 1020.9 0.0
30/06:00am 14.5 13.4 11.8 84 1.5 WNW 9 11 5 6 1020.5 1020.4 0.0
30/05:30am 13.3 12.1 11.5 89 1.0 W 9 11 5 6 1020.0 1019.9 0.0
30/05:00am 12.4 11.1 11.3 93 0.6 W 9 11 5 6 1019.4 1019.3 0.0
30/04:30am 11.4 9.9 10.5 94 0.5 W 9 9 5 5 1018.7 1018.7 0.0
30/04:00am 10.3 8.4 9.2 93 0.5 SW 9 11 5 6 1018.3 1018.3 0.0
30/03:30am 11.3 9.6 10.0 92 0.7 SW 9 9 5 5 1017.8 1017.8 0.0
30/03:00am 13.1 11.8 11.2 88 1.0 SSW 9 11 5 6 1017.5 1017.5 0.0
30/02:30am 13.1 12.2 11.3 89 1.0 SSW 7 9 4 5 1017.3 1017.3 0.0
30/02:00am 13.4 12.2 11.6 89 1.0 SSW 9 13 5 7 1017.1 1017.0 0.0
30/01:30am 13.4 11.8 11.6 89 1.0 S 11 13 6 7 1017.0 1016.9 0.0
30/01:00am 13.5 11.9 11.7 89 1.0 S 11 15 6 8 1016.9 1016.8 0.0
30/12:30am 13.4 11.9 11.8 90 0.9 S 11 15 6 8 1017.0 1016.9 0.0
30/12:00am 13.2 12.1 12.1 93 0.6 SSW 9 13 5 7 1016.9 1016.8 0.0
 
Date/Time
WST
Temp
°C
App
Temp
°C
Dew
Point
Rel
Hum
%
Delta-T
°C
Wind Press
QNH
hPa
Press
MSL
hPa
Rain
since 9 am
mm
Dir
 
Spd
km/h
Gust
km/h
Spd
kts
Gust
kts
29/11:30pm 13.6 12.7 12.7 94 0.5 SSW 9 13 5 7 1016.6 1016.5 0.0
29/11:00pm 13.8 13.1 13.3 97 0.3 SSW 9 13 5 7 1016.6 1016.5 0.0
29/10:30pm 13.9 12.9 13.4 97 0.3 SW 11 13 6 7 1016.3 1016.2 0.0
29/10:00pm 14.0 13.4 13.4 96 0.3 SSW 9 11 5 6 1015.9 1015.8 0.0
29/09:30pm 13.1 12.3 11.8 92 0.7 S 7 7 4 4 1015.6 1015.5 0.0
29/09:00pm 14.0 13.5 12.7 92 0.7 S 7 11 4 6 1015.8 1015.7 0.0
29/08:30pm 14.7 14.5 13.6 93 0.6 S 7 9 4 5 1015.6 1015.5 0.0
29/08:00pm 15.1 14.7 14.0 93 0.6 S 9 11 5 6 1015.6 1015.5 0.0
29/07:30pm 15.3 14.6 14.2 93 0.6 S 11 13 6 7 1015.5 1015.4 0.0
29/07:00pm 15.3 14.8 13.8 91 0.8 S 9 13 5 7 1015.0 1014.9 0.0
29/06:30pm 15.6 14.9 13.3 86 1.3 S 9 11 5 6 1014.5 1014.4 0.0

Other Formats:

Comma delimited format used in spreadsheet applications
http://www.bom.gov.au/fwo/IDW60801/IDW60801.94647.axf

JavaScript Object Notation format (JSON) in row-major order
http://www.bom.gov.au/fwo/IDW60801/IDW60801.94647.json